Time;durP1;ratioP1;P1;durP2;ratioP2;P2;SDS_P1;SDS_P2;PMS_P1;PMS_P2;Temp;Humidity;BMP_temperature;BMP_pressure;BME280_temperature;BME280_humidity;BME280_pressure;Samples;Min_cycle;Max_cycle;Signal;HPM_P1;HPM_P2
2021/10/25 00:00:24;;;;;;;25.45;16.88;;;4.30;99.90;;;;;;4939879;29;20210;-92
2021/10/25 00:02:49;;;;;;;26.93;15.13;;;4.30;99.90;;;;;;4928206;29;20652;-92
2021/10/25 00:05:15;;;;;;;18.77;15.17;;;4.30;99.90;;;;;;4942250;29;20309;-92
2021/10/25 00:07:41;;;;;;;18.70;12.90;;;4.20;99.90;;;;;;4940917;29;20635;-90
2021/10/25 00:10:07;;;;;;;18.90;13.30;;;4.20;99.90;;;;;;4924832;29;20252;-91
2021/10/25 00:12:33;;;;;;;22.42;11.82;;;4.10;99.90;;;;;;4944284;29;20260;-92
2021/10/25 00:15:00;;;;;;;20.47;11.60;;;4.10;99.90;;;;;;4924277;29;20253;-92
2021/10/25 00:17:26;;;;;;;22.58;13.80;;;4.10;99.90;;;;;;4940229;29;20446;-90
2021/10/25 00:19:51;;;;;;;19.83;11.83;;;4.10;99.90;;;;;;4941526;29;20212;-92
2021/10/25 00:22:17;;;;;;;19.23;12.80;;;4.00;99.90;;;;;;4924535;29;20220;-91
2021/10/25 00:24:44;;;;;;;17.53;11.10;;;3.90;99.90;;;;;;4924542;29;20450;-93
2021/10/25 00:27:10;;;;;;;18.58;12.85;;;3.90;99.90;;;;;;4913245;29;20450;-92
2021/10/25 00:29:35;;;;;;;19.30;11.67;;;3.80;99.90;;;;;;4905635;29;20206;-92
2021/10/25 00:32:01;;;;;;;17.33;11.60;;;3.80;99.90;;;;;;4905331;29;20482;-91
2021/10/25 00:34:27;;;;;;;20.77;11.77;;;3.80;99.90;;;;;;4922142;29;20258;-92
2021/10/25 00:36:53;;;;;;;19.43;12.20;;;3.80;99.90;;;;;;4922704;29;20179;-91
2021/10/25 00:39:19;;;;;;;22.03;12.57;;;3.80;99.90;;;;;;4905382;29;20214;-92
2021/10/25 00:41:44;;;;;;;26.43;13.57;;;3.70;99.90;;;;;;4933194;29;20447;-91
2021/10/25 00:44:10;;;;;;;20.33;11.63;;;3.70;99.90;;;;;;4906657;29;20214;-92
2021/10/25 00:46:36;;;;;;;23.90;12.60;;;3.70;99.90;;;;;;4920611;29;20410;-92
2021/10/25 00:49:02;;;;;;;20.13;10.97;;;3.70;99.90;;;;;;4903751;29;20602;-92
2021/10/25 00:51:28;;;;;;;22.55;12.68;;;3.70;99.90;;;;;;4903904;29;20931;-93
2021/10/25 00:53:54;;;;;;;17.43;11.33;;;3.70;99.90;;;;;;4913214;29;20179;-90
2021/10/25 00:56:20;;;;;;;20.00;10.40;;;3.70;99.90;;;;;;4924677;29;20420;-93
2021/10/25 00:58:46;;;;;;;16.10;9.40;;;3.70;99.90;;;;;;4922594;29;20439;-92
2021/10/25 01:01:12;;;;;;;14.20;10.80;;;3.70;99.90;;;;;;4921228;29;20794;-92
2021/10/25 01:03:38;;;;;;;21.63;10.70;;;3.80;99.90;;;;;;4903745;29;20226;-92
2021/10/25 01:06:04;;;;;;;19.90;12.27;;;3.70;99.90;;;;;;4924833;29;20453;-92
2021/10/25 01:08:34;;;;;;;14.52;9.82;;;3.70;99.90;;;;;;4906295;29;20520;-91
2021/10/25 01:11:00;;;;;;;14.30;9.90;;;3.70;99.90;;;;;;4903702;29;20241;-93
2021/10/25 01:13:27;;;;;;;14.73;10.30;;;3.70;99.90;;;;;;4903775;29;20198;-91
2021/10/25 01:15:53;;;;;;;16.83;10.68;;;3.70;99.90;;;;;;4903749;29;20202;-92
2021/10/25 01:18:18;;;;;;;22.07;12.47;;;3.70;99.90;;;;;;4920538;29;20215;-91
2021/10/25 01:20:44;;;;;;;24.20;12.70;;;3.70;99.90;;;;;;4908521;29;20434;-93
2021/10/25 01:23:10;;;;;;;33.40;20.43;;;3.70;99.90;;;;;;4904198;29;20273;-92
2021/10/25 01:25:36;;;;;;;29.97;17.83;;;3.70;99.90;;;;;;4906416;29;21088;-92
2021/10/25 01:28:03;;;;;;;40.28;21.48;;;3.70;99.90;;;;;;4903177;29;20396;-94
2021/10/25 01:30:29;;;;;;;51.55;23.35;;;3.60;99.90;;;;;;4903813;29;20211;-92
2021/10/25 01:32:55;;;;;;;40.80;23.17;;;3.60;99.90;;;;;;4908662;29;20225;-91
2021/10/25 01:35:21;;;;;;;38.10;20.58;;;3.60;99.90;;;;;;4903456;29;20215;-91
2021/10/25 01:37:47;;;;;;;32.15;18.25;;;3.60;99.90;;;;;;4903100;29;20179;-91
2021/10/25 01:40:13;;;;;;;18.00;11.50;;;3.60;99.90;;;;;;4902936;29;20555;-91
2021/10/25 01:42:40;;;;;;;20.00;11.93;;;3.60;99.90;;;;;;4902816;29;20214;-92
2021/10/25 01:45:07;;;;;;;17.27;10.90;;;3.60;99.90;;;;;;4923312;29;20203;-89
2021/10/25 01:47:33;;;;;;;18.73;11.00;;;3.50;99.90;;;;;;4904813;29;20214;-90
2021/10/25 01:50:00;;;;;;;17.98;11.00;;;3.50;99.90;;;;;;4919995;29;20213;-91
2021/10/25 01:52:25;;;;;;;17.58;10.70;;;3.50;99.90;;;;;;4903842;29;20230;-91
2021/10/25 01:54:51;;;;;;;19.67;11.93;;;3.40;99.90;;;;;;4905645;29;20215;-91
2021/10/25 01:57:17;;;;;;;14.33;10.10;;;3.40;99.90;;;;;;4930366;29;20412;-90
2021/10/25 01:59:43;;;;;;;19.27;11.40;;;3.40;99.90;;;;;;4908783;29;20658;-91
2021/10/25 02:02:08;;;;;;;16.30;10.67;;;3.30;99.90;;;;;;4919809;29;20292;-91
2021/10/25 02:04:34;;;;;;;18.83;10.20;;;3.30;99.90;;;;;;4903348;29;20221;-90
2021/10/25 02:07:00;;;;;;;18.58;11.95;;;3.30;99.90;;;;;;4918325;29;20216;-91
2021/10/25 02:09:25;;;;;;;15.93;10.93;;;3.40;99.90;;;;;;4902515;29;20334;-91
2021/10/25 02:11:51;;;;;;;16.60;11.43;;;3.40;99.90;;;;;;4919688;29;20223;-91
2021/10/25 02:14:17;;;;;;;16.63;10.53;;;3.40;99.90;;;;;;4902639;29;20314;-90
2021/10/25 02:16:43;;;;;;;17.10;10.10;;;3.40;99.90;;;;;;4919267;29;20395;-91
2021/10/25 02:19:09;;;;;;;19.73;10.20;;;3.40;99.90;;;;;;4902235;29;20420;-90
2021/10/25 02:21:35;;;;;;;17.60;10.90;;;3.40;99.90;;;;;;4919129;29;20206;-90
2021/10/25 02:24:01;;;;;;;18.07;10.53;;;3.40;99.90;;;;;;4903066;29;20447;-90
2021/10/25 02:26:27;;;;;;;16.85;11.07;;;3.40;99.90;;;;;;4904606;29;20492;-90
2021/10/25 02:28:53;;;;;;;16.67;10.00;;;3.40;99.90;;;;;;4902188;29;20190;-91
2021/10/25 02:31:18;;;;;;;16.37;10.17;;;3.30;99.90;;;;;;4901983;29;20221;-88
2021/10/25 02:33:44;;;;;;;17.00;9.73;;;3.30;99.90;;;;;;4902111;29;20432;-89
2021/10/25 02:36:10;;;;;;;16.87;11.60;;;3.20;99.90;;;;;;4920646;29;20249;-91
2021/10/25 02:38:37;;;;;;;16.60;10.17;;;3.20;99.90;;;;;;4919938;29;20190;-89
2021/10/25 02:41:04;;;;;;;16.70;10.20;;;3.20;99.90;;;;;;4920994;29;20431;-90
2021/10/25 02:43:30;;;;;;;15.45;10.93;;;3.10;99.90;;;;;;4903526;29;20190;-90
2021/10/25 02:45:57;;;;;;;15.87;10.03;;;3.10;99.90;;;;;;4902132;29;20761;-90
2021/10/25 02:48:25;;;;;;;15.13;10.45;;;3.10;99.90;;;;;;4901895;29;20183;-90
2021/10/25 02:50:52;;;;;;;28.98;12.18;;;3.10;99.90;;;;;;4903112;29;20220;-87
2021/10/25 02:53:18;;;;;;;16.38;10.52;;;3.00;99.90;;;;;;4919221;29;20182;-90
2021/10/25 02:55:43;;;;;;;30.90;19.10;;;3.10;99.90;;;;;;4921336;29;20202;-90
2021/10/25 02:58:09;;;;;;;715.37;367.07;;;3.10;99.90;;;;;;4923556;29;20484;-89
2021/10/25 03:00:35;;;;;;;17.63;11.20;;;3.10;99.90;;;;;;4919339;29;20265;-91
2021/10/25 03:03:01;;;;;;;18.70;11.02;;;3.00;99.90;;;;;;4902155;29;20328;-90
2021/10/25 03:05:27;;;;;;;15.70;10.93;;;3.00;99.90;;;;;;4907248;29;20209;-90
2021/10/25 03:07:53;;;;;;;28.43;11.03;;;3.00;99.90;;;;;;4923690;29;20238;-89
2021/10/25 03:10:18;;;;;;;17.83;10.87;;;3.00;99.90;;;;;;4926706;29;20205;-89
2021/10/25 03:12:46;;;;;;;19.07;11.10;;;3.00;99.90;;;;;;4912654;29;20253;-90
2021/10/25 03:15:12;;;;;;;21.30;13.63;;;2.90;99.90;;;;;;4922993;29;20211;-90
2021/10/25 03:17:37;;;;;;;23.23;14.10;;;2.90;99.90;;;;;;4922535;29;20556;-90
2021/10/25 03:20:04;;;;;;;22.00;15.13;;;2.90;99.90;;;;;;4906284;29;20567;-90
2021/10/25 03:22:30;;;;;;;23.10;15.25;;;2.80;99.90;;;;;;4905450;29;20228;-90
2021/10/25 03:24:56;;;;;;;18.97;12.97;;;2.80;99.90;;;;;;4922132;29;20198;-90
2021/10/25 03:27:22;;;;;;;20.20;11.32;;;2.80;99.90;;;;;;4918852;29;20237;-90
2021/10/25 03:29:48;;;;;;;23.73;12.17;;;2.80;99.90;;;;;;4924445;29;20209;-90
2021/10/25 03:32:14;;;;;;;16.80;11.50;;;2.70;99.90;;;;;;4924775;29;20420;-89
2021/10/25 03:34:39;;;;;;;16.80;10.93;;;2.70;99.90;;;;;;4925264;29;20253;-90
2021/10/25 03:37:05;;;;;;;15.77;11.03;;;2.70;99.90;;;;;;4947121;29;20395;-92
2021/10/25 03:39:35;;;;;;;17.00;10.63;;;2.80;99.90;;;;;;4924032;29;20860;-91
2021/10/25 03:42:04;;;;;;;16.15;11.00;;;2.90;99.90;;;;;;4924435;29;20214;-90
2021/10/25 03:44:38;;;;;;;17.42;10.10;;;2.90;99.90;;;;;;4927118;29;20209;-90
2021/10/25 03:47:14;;;;;;;17.42;10.27;;;2.90;99.90;;;;;;4925076;29;20185;-90
2021/10/25 03:49:51;;;;;;;12.38;10.00;;;3.00;99.90;;;;;;4923996;29;20209;-90
2021/10/25 03:52:32;;;;;;;22.85;12.15;;;3.20;99.90;;;;;;4924010;29;20181;-91
2021/10/25 03:55:11;;;;;;;30.58;18.73;;;3.30;99.90;;;;;;4931834;29;20214;-90
2021/10/25 04:13:40;;;;;;;40.95;23.35;;;4.10;99.90;;;;;;4945110;29;20189;-89
2021/10/25 04:29:49;;;;;;;46.10;25.17;;;4.30;99.90;;;;;;4941474;29;20282;-90
2021/10/25 04:32:15;;;;;;;32.35;18.10;;;4.10;99.90;;;;;;4930803;29;20695;-90
2021/10/25 04:34:40;;;;;;;22.60;15.47;;;4.00;99.90;;;;;;4925551;29;20210;-90
2021/10/25 04:37:06;;;;;;;14.23;11.03;;;3.90;99.90;;;;;;4941156;29;20571;-90
2021/10/25 04:39:32;;;;;;;17.63;11.17;;;3.80;99.90;;;;;;4940541;29;20206;-90
2021/10/25 04:41:57;;;;;;;18.37;10.27;;;3.80;99.90;;;;;;4946917;29;20265;-90
2021/10/25 04:44:24;;;;;;;18.73;10.73;;;3.80;99.90;;;;;;4940736;29;20206;-89
2021/10/25 04:46:50;;;;;;;14.02;9.43;;;3.80;99.90;;;;;;4940906;29;20172;-89
2021/10/25 04:49:15;;;;;;;19.33;11.60;;;3.80;99.90;;;;;;4923332;29;20214;-90
2021/10/25 04:51:41;;;;;;;15.67;9.90;;;3.80;99.90;;;;;;4938087;29;20178;-90
2021/10/25 04:54:07;;;;;;;16.47;10.90;;;3.80;99.90;;;;;;4934704;29;20176;-90
2021/10/25 04:56:32;;;;;;;15.87;9.97;;;3.80;99.90;;;;;;4931917;29;20564;-89
2021/10/25 04:58:58;;;;;;;17.43;11.50;;;3.80;99.90;;;;;;4921108;29;20431;-91
2021/10/25 05:01:23;;;;;;;17.10;11.07;;;3.80;99.90;;;;;;4930754;29;20308;-90
2021/10/25 05:03:49;;;;;;;18.10;10.23;;;3.80;99.90;;;;;;4922494;29;20201;-90
2021/10/25 05:06:17;;;;;;;19.57;11.73;;;3.80;99.90;;;;;;4922331;29;20214;-90
2021/10/25 05:08:44;;;;;;;19.90;12.48;;;3.70;99.90;;;;;;4937717;29;20174;-90
2021/10/25 05:11:10;;;;;;;20.17;12.35;;;3.70;99.90;;;;;;4922900;29;20578;-90
2021/10/25 05:13:35;;;;;;;22.07;14.03;;;3.60;99.90;;;;;;4923407;29;20194;-90
2021/10/25 05:16:01;;;;;;;20.27;12.70;;;3.50;99.90;;;;;;4925471;29;20202;-90
2021/10/25 05:18:27;;;;;;;20.93;13.20;;;3.50;99.90;;;;;;4925225;29;20562;-90
2021/10/25 05:20:52;;;;;;;123.70;58.10;;;3.50;99.90;;;;;;4922277;29;20206;-90
2021/10/25 05:23:21;;;;;;;19.63;13.43;;;3.50;99.90;;;;;;4921433;29;20595;-90
2021/10/25 05:25:49;;;;;;;22.23;13.23;;;3.40;99.90;;;;;;4921305;29;20245;-90
2021/10/25 05:28:15;;;;;;;21.67;13.00;;;3.40;99.90;;;;;;4922014;29;20181;-90
2021/10/25 05:30:41;;;;;;;19.63;12.93;;;3.30;99.90;;;;;;4938718;29;20288;-90
2021/10/25 05:33:07;;;;;;;19.70;11.90;;;3.20;99.90;;;;;;4944174;29;20261;-89
2021/10/25 05:35:33;;;;;;;21.58;13.38;;;3.10;99.90;;;;;;4924006;29;20317;-90
2021/10/25 05:37:59;;;;;;;18.70;13.27;;;3.00;99.90;;;;;;4939072;29;20201;-90
2021/10/25 05:40:27;;;;;;;18.63;11.80;;;3.00;99.90;;;;;;4935534;29;20205;-90
2021/10/25 05:42:54;;;;;;;22.45;12.15;;;3.00;99.90;;;;;;4927688;29;20691;-90
2021/10/25 05:45:25;;;;;;;31.63;14.75;;;2.90;99.90;;;;;;4937884;29;20582;-90
2021/10/25 05:47:58;;;;;;;21.85;12.98;;;2.90;99.90;;;;;;4924118;29;20189;-90
2021/10/25 05:50:24;;;;;;;22.00;13.73;;;2.90;99.90;;;;;;4938360;29;20596;-91
2021/10/25 05:53:00;;;;;;;21.50;13.60;;;2.80;99.90;;;;;;4936409;29;20181;-90
2021/10/25 05:55:30;;;;;;;23.50;13.27;;;2.80;99.90;;;;;;4924312;29;20209;-91
2021/10/25 05:57:56;;;;;;;20.10;13.52;;;2.80;99.90;;;;;;4938251;29;20277;-89
2021/10/25 06:00:28;;;;;;;26.30;15.83;;;2.80;99.90;;;;;;4922247;29;20671;-90
2021/10/25 06:02:57;;;;;;;29.95;15.40;;;2.90;99.90;;;;;;4923430;29;20503;-90
2021/10/25 06:05:40;;;;;;;25.17;14.98;;;2.90;99.90;;;;;;4938771;29;20212;-91
2021/10/25 06:08:06;;;;;;;26.20;14.80;;;3.00;99.90;;;;;;4928654;29;20169;-91
2021/10/25 06:10:32;;;;;;;24.63;14.60;;;3.00;99.90;;;;;;4929733;29;20241;-90
2021/10/25 06:13:03;;;;;;;27.65;15.32;;;3.00;99.90;;;;;;4926046;29;20935;-91
2021/10/25 06:15:36;;;;;;;27.05;15.15;;;3.10;99.90;;;;;;4933789;29;20242;-91
2021/10/25 06:18:05;;;;;;;24.15;14.68;;;3.20;99.90;;;;;;4936212;29;20249;-90
2021/10/25 06:20:31;;;;;;;22.70;14.27;;;3.20;99.90;;;;;;4938235;29;20224;-91
2021/10/25 06:22:57;;;;;;;21.50;14.00;;;3.30;99.90;;;;;;4939711;29;20296;-92
2021/10/25 06:25:23;;;;;;;24.38;15.70;;;3.40;99.90;;;;;;4920780;29;20206;-90
2021/10/25 06:27:52;;;;;;;20.67;14.73;;;3.50;99.90;;;;;;4903676;29;20241;-91
2021/10/25 06:30:19;;;;;;;23.67;14.35;;;3.60;99.90;;;;;;4900845;29;20472;-90
2021/10/25 06:32:47;;;;;;;23.48;14.63;;;3.70;99.90;;;;;;4905250;29;20194;-89
2021/10/25 06:35:15;;;;;;;28.65;16.45;;;3.80;99.90;;;;;;4917921;29;20278;-91
2021/10/25 06:37:54;;;;;;;23.77;15.27;;;3.80;99.90;;;;;;4905948;29;20200;-92
2021/10/25 06:40:21;;;;;;;26.35;16.98;;;3.90;99.90;;;;;;4921422;29;20205;-90
2021/10/25 06:42:48;;;;;;;25.50;17.00;;;4.00;99.90;;;;;;4919771;29;20309;-90
2021/10/25 06:45:17;;;;;;;24.88;16.30;;;4.10;99.90;;;;;;4923858;29;20210;-91
2021/10/25 06:47:43;;;;;;;28.40;18.75;;;4.20;99.90;;;;;;4900900;29;20195;-91
2021/10/25 06:50:10;;;;;;;31.92;21.40;;;4.30;99.90;;;;;;4918010;29;20234;-90
2021/10/25 06:52:36;;;;;;;31.83;18.25;;;4.50;99.90;;;;;;4919714;29;20201;-91
2021/10/25 06:55:06;;;;;;;29.23;18.20;;;4.60;99.90;;;;;;4904215;29;20216;-91
2021/10/25 06:57:33;;;;;;;27.33;19.48;;;4.70;99.90;;;;;;4903987;29;20194;-93
2021/10/25 07:00:00;;;;;;;31.05;20.10;;;4.90;99.90;;;;;;4927279;29;20277;-91
2021/10/25 07:02:27;;;;;;;29.45;19.70;;;5.00;99.90;;;;;;4928515;29;20716;-94
2021/10/25 07:04:53;;;;;;;27.98;19.00;;;5.10;99.90;;;;;;4900578;29;20657;-94
2021/10/25 07:07:23;;;;;;;23.40;16.43;;;5.30;99.90;;;;;;4915146;29;20277;-93
2021/10/25 07:09:49;;;;;;;22.40;13.90;;;5.60;99.90;;;;;;4904863;29;20448;-92
2021/10/25 07:12:14;;;;;;;19.30;13.03;;;6.20;99.90;;;;;;4934121;29;20182;-92
2021/10/25 07:14:44;;;;;;;17.73;12.40;;;6.80;99.90;;;;;;4900732;29;20297;-92
2021/10/25 07:23:07;;;;;;;21.60;12.90;;;7.90;99.90;;;;;;4877594;29;20231;-93
2021/10/25 08:09:11;;;;;;;12.03;10.27;;;18.70;94.70;;;;;;4915351;29;20443;-92
2021/10/25 08:11:54;;;;;;;14.07;10.00;;;19.40;93.70;;;;;;4909385;29;20465;-94
2021/10/25 08:14:21;;;;;;;12.43;9.03;;;19.80;92.90;;;;;;4914016;29;20466;-93
2021/10/25 08:16:49;;;;;;;10.90;9.30;;;20.20;91.30;;;;;;4928796;29;20855;-94
2021/10/25 08:19:24;;;;;;;13.07;9.10;;;20.60;90.80;;;;;;4919185;29;20953;-94
2021/10/25 08:21:53;;;;;;;13.80;10.40;;;20.80;90.00;;;;;;4920680;29;20483;-95
2021/10/25 08:24:18;;;;;;;12.40;9.00;;;21.10;89.80;;;;;;4936541;29;20457;-93
2021/10/25 08:26:45;;;;;;;14.73;10.07;;;21.20;87.40;;;;;;4927851;29;20544;-93
2021/10/25 08:29:14;;;;;;;11.07;9.00;;;21.20;86.70;;;;;;4925656;28;20269;-95
2021/10/25 08:31:41;;;;;;;10.30;8.53;;;21.00;86.90;;;;;;4913422;29;20769;-95
2021/10/25 08:34:33;;;;;;;12.70;10.40;;;20.70;86.10;;;;;;4919674;29;20432;-95
2021/10/25 08:39:49;;;;;;;13.20;9.60;;;19.50;88.60;;;;;;4923662;29;20863;-95
2021/10/25 08:42:26;;;;;;;10.80;8.87;;;18.80;89.80;;;;;;4903905;29;20576;-96
2021/10/25 08:44:59;;;;;;;14.67;10.30;;;18.10;90.60;;;;;;4907646;29;20491;-94
2021/10/25 08:47:34;;;;;;;10.07;7.93;;;17.50;91.20;;;;;;4921425;29;20452;-92
2021/10/25 08:50:04;;;;;;;11.43;7.93;;;16.80;91.70;;;;;;4922690;29;20510;-93
2021/10/25 08:52:30;;;;;;;12.70;6.93;;;16.30;92.40;;;;;;4941313;29;20490;-95
2021/10/25 08:54:59;;;;;;;9.93;7.50;;;16.00;92.90;;;;;;4944792;28;20496;-93
2021/10/25 08:57:26;;;;;;;11.53;7.23;;;15.70;93.40;;;;;;4928261;29;20446;-95
2021/10/25 09:00:01;;;;;;;8.93;6.50;;;15.30;93.90;;;;;;4927625;29;20477;-94
2021/10/25 09:02:30;;;;;;;7.23;6.53;;;15.10;95.00;;;;;;4924500;29;20574;-93
2021/10/25 09:05:03;;;;;;;8.57;6.00;;;15.00;94.70;;;;;;4928351;29;20447;-94
2021/10/25 09:07:29;;;;;;;11.03;7.23;;;15.00;94.80;;;;;;4906382;29;20527;-93
2021/10/25 09:09:56;;;;;;;7.97;6.53;;;14.90;94.90;;;;;;4924993;29;20938;-93
2021/10/25 09:12:23;;;;;;;8.13;6.40;;;14.90;95.10;;;;;;4919268;29;20449;-94
2021/10/25 09:14:57;;;;;;;12.17;6.77;;;14.80;95.20;;;;;;4921631;29;20444;-94
2021/10/25 09:17:23;;;;;;;7.13;5.87;;;14.80;95.50;;;;;;4927202;29;20461;-93
2021/10/25 09:19:49;;;;;;;6.87;5.60;;;14.70;96.10;;;;;;4939626;29;20835;-96
2021/10/25 09:22:17;;;;;;;6.40;5.80;;;14.50;95.40;;;;;;4926586;29;20483;-94
2021/10/25 09:24:54;;;;;;;8.73;5.87;;;14.50;95.50;;;;;;4939086;29;20993;-94
2021/10/25 09:27:47;;;;;;;7.33;5.47;;;14.40;95.60;;;;;;4912397;29;20471;-94
2021/10/25 09:30:20;;;;;;;8.83;6.50;;;14.20;95.80;;;;;;4929287;29;20474;-95
2021/10/25 09:32:47;;;;;;;6.93;6.20;;;14.10;96.00;;;;;;4915641;29;20437;-94
2021/10/25 09:35:28;;;;;;;7.93;6.00;;;14.10;96.50;;;;;;4917195;29;20569;-94
2021/10/25 09:38:19;;;;;;;14.30;5.30;;;14.10;96.60;;;;;;4924854;29;20431;-94
2021/10/25 09:45:04;;;;;;;9.17;6.80;;;14.30;96.40;;;;;;4932196;29;20520;-92
2021/10/25 09:46:35;;;;;;;10.33;7.70;;;14.40;96.90;;;;;;4931985;29;20441;-94
2021/10/25 09:51:29;;;;;;;6.90;5.57;;;14.30;96.60;;;;;;4932540;29;20519;-93
2021/10/25 09:53:59;;;;;;;9.87;5.90;;;14.30;96.90;;;;;;4913293;29;20938;-94
2021/10/25 09:56:43;;;;;;;8.43;7.27;;;14.30;97.40;;;;;;4922733;29;20195;-93
2021/10/25 10:01:42;;;;;;;11.53;5.97;;;14.40;97.20;;;;;;4926592;29;20471;-95
2021/10/25 10:04:09;;;;;;;6.70;5.30;;;14.40;97.20;;;;;;4937493;29;20419;-93
2021/10/25 10:06:36;;;;;;;10.70;6.30;;;14.50;97.00;;;;;;4926374;29;20962;-94
2021/10/25 10:09:03;;;;;;;6.83;5.90;;;14.60;97.50;;;;;;4911069;29;20473;-93
2021/10/25 10:11:29;;;;;;;7.37;5.50;;;14.60;97.30;;;;;;4933135;29;20535;-94
2021/10/25 10:13:56;;;;;;;9.33;5.90;;;14.60;97.30;;;;;;4909949;29;20451;-96
2021/10/25 10:16:23;;;;;;;6.47;4.93;;;14.70;97.50;;;;;;4924351;29;20444;-95
2021/10/25 10:18:55;;;;;;;6.87;5.00;;;14.80;97.20;;;;;;4917424;29;20431;-92
2021/10/25 10:21:23;;;;;;;5.60;4.83;;;14.80;96.90;;;;;;4931678;29;20444;-91
2021/10/25 10:23:58;;;;;;;6.67;5.23;;;14.80;96.80;;;;;;4914303;29;20810;-96
2021/10/25 10:26:31;;;;;;;6.63;4.60;;;14.90;96.70;;;;;;4914050;29;20442;-94
2021/10/25 10:29:08;;;;;;;6.40;4.57;;;15.00;96.60;;;;;;4883486;29;20446;-93
2021/10/25 10:31:35;;;;;;;6.20;5.20;;;15.10;96.40;;;;;;4902575;29;20446;-94
2021/10/25 10:34:12;;;;;;;10.17;6.53;;;15.10;96.30;;;;;;4906996;29;20417;-96
2021/10/25 10:37:01;;;;;;;5.60;4.53;;;15.20;96.40;;;;;;4906342;29;20406;-95
2021/10/25 10:39:28;;;;;;;6.27;4.27;;;15.20;95.20;;;;;;4900370;29;20453;-96
2021/10/25 10:42:01;;;;;;;5.00;4.50;;;15.20;94.90;;;;;;4900389;29;20472;-95
2021/10/25 10:44:29;;;;;;;7.37;4.70;;;15.30;95.20;;;;;;4898409;29;20468;-93
2021/10/25 10:47:02;;;;;;;6.23;4.23;;;15.30;94.40;;;;;;4907239;29;20773;-90
2021/10/25 10:49:39;;;;;;;7.13;4.07;;;15.30;94.80;;;;;;4914323;29;20450;-94
2021/10/25 10:55:03;;;;;;;6.43;4.80;;;15.40;94.60;;;;;;4919651;29;20654;-93
2021/10/25 11:00:40;;;;;;;8.23;4.47;;;15.50;94.40;;;;;;4929945;29;20457;-93
2021/10/25 11:03:09;;;;;;;7.03;5.17;;;15.50;93.90;;;;;;4906550;29;20443;-93
2021/10/25 11:05:53;;;;;;;9.70;5.93;;;15.60;93.80;;;;;;4909606;29;20461;-94
2021/10/25 11:08:32;;;;;;;11.97;5.60;;;15.60;93.70;;;;;;4905031;29;20449;-93
2021/10/25 11:11:14;;;;;;;4.87;3.60;;;15.70;93.70;;;;;;4909246;29;20456;-94
2021/10/25 11:14:05;;;;;;;6.80;4.00;;;15.60;93.10;;;;;;4929885;28;20482;-92
2021/10/25 11:16:52;;;;;;;5.27;4.10;;;15.60;93.30;;;;;;4925938;29;20918;-94
2021/10/25 11:19:26;;;;;;;5.90;4.50;;;15.60;93.60;;;;;;4947125;29;22160;-92
2021/10/25 11:22:02;;;;;;;4.97;4.47;;;15.60;92.90;;;;;;4941869;28;20473;-94
2021/10/25 11:24:33;;;;;;;4.83;4.43;;;15.60;93.10;;;;;;4949491;28;20481;-92
2021/10/25 11:26:59;;;;;;;9.47;4.97;;;15.60;93.10;;;;;;4951725;28;20428;-94
2021/10/25 11:29:35;;;;;;;4.90;4.47;;;15.60;93.20;;;;;;4954230;28;20455;-93
2021/10/25 11:32:07;;;;;;;4.60;3.63;;;15.60;93.30;;;;;;4951820;29;20451;-94
2021/10/25 11:34:37;;;;;;;6.73;4.63;;;15.70;93.10;;;;;;4953711;29;20610;-93
2021/10/25 11:37:10;;;;;;;6.23;4.37;;;15.70;93.20;;;;;;4938007;29;20416;-95
2021/10/25 11:39:43;;;;;;;4.90;4.10;;;15.70;92.90;;;;;;4951376;29;20488;-92
2021/10/25 11:42:12;;;;;;;3.90;3.60;;;15.70;93.10;;;;;;4961945;29;20471;-92
2021/10/25 11:44:39;;;;;;;5.00;3.70;;;15.70;93.00;;;;;;4946360;29;20468;-91
2021/10/25 11:47:23;;;;;;;5.60;4.07;;;15.70;93.10;;;;;;4949733;28;20452;-93
2021/10/25 11:49:53;;;;;;;5.60;3.93;;;15.70;92.60;;;;;;4958857;29;20559;-91
2021/10/25 11:52:19;;;;;;;4.73;4.30;;;15.70;92.70;;;;;;4941208;29;20443;-91
2021/10/25 11:54:54;;;;;;;6.27;4.93;;;15.80;92.90;;;;;;4952146;29;20480;-94
2021/10/25 11:57:27;;;;;;;8.20;4.40;;;15.80;93.60;;;;;;4958084;29;20419;-91
2021/10/25 12:00:06;;;;;;;5.10;4.00;;;15.90;93.10;;;;;;4946372;28;20451;-93
2021/10/25 12:02:35;;;;;;;4.73;3.80;;;15.90;93.00;;;;;;4950484;29;20494;-92
2021/10/25 12:05:05;;;;;;;6.00;4.87;;;15.90;93.00;;;;;;4947972;28;20450;-91
2021/10/25 12:07:32;;;;;;;5.27;4.03;;;15.90;93.00;;;;;;4943196;28;21024;-94
2021/10/25 12:10:09;;;;;;;6.37;5.67;;;15.90;93.10;;;;;;4949586;29;20447;-94
2021/10/25 12:12:35;;;;;;;4.70;4.30;;;15.80;93.10;;;;;;4949771;28;20453;-93
2021/10/25 12:15:04;;;;;;;5.70;4.10;;;15.80;93.30;;;;;;4945889;29;20580;-93
2021/10/25 12:17:37;;;;;;;4.60;4.17;;;15.80;93.60;;;;;;4943678;29;20498;-94
2021/10/25 12:20:11;;;;;;;11.43;7.20;;;15.80;93.40;;;;;;4943939;29;20467;-96
2021/10/25 12:22:38;;;;;;;10.17;5.10;;;15.80;93.90;;;;;;4940942;29;20478;-93
2021/10/25 12:25:05;;;;;;;5.83;4.60;;;15.80;93.50;;;;;;4944128;28;20463;-91
2021/10/25 12:27:41;;;;;;;5.37;4.30;;;15.80;93.60;;;;;;4947092;29;20434;-92
2021/10/25 12:30:13;;;;;;;6.60;4.80;;;15.90;93.80;;;;;;4941431;28;20465;-92
2021/10/25 12:33:22;;;;;;;;;;;;;;;;;;;;;
2021/10/25 12:35:51;;;;;;;7.30;4.53;;;15.80;93.60;;;;;;4946090;28;20538;-94
2021/10/25 12:38:33;;;;;;;5.03;4.57;;;15.80;93.50;;;;;;4958291;29;21263;-94
2021/10/25 12:41:09;;;;;;;5.00;4.37;;;15.90;93.70;;;;;;4938313;28;20478;-93
2021/10/25 12:44:02;;;;;;;4.50;4.10;;;15.90;93.40;;;;;;4939741;28;20508;-95
2021/10/25 12:46:35;;;;;;;5.00;4.50;;;15.90;93.70;;;;;;4924666;28;20443;-95
2021/10/25 12:49:02;;;;;;;5.00;4.50;;;15.80;93.40;;;;;;4942483;28;20447;-96
2021/10/25 12:51:42;;;;;;;8.03;4.80;;;15.80;93.80;;;;;;4942360;29;20431;-95
2021/10/25 12:54:13;;;;;;;5.17;4.67;;;15.80;93.80;;;;;;4940845;29;20453;-93
2021/10/25 12:56:43;;;;;;;5.27;4.77;;;15.80;93.90;;;;;;4940765;29;20439;-93
2021/10/25 12:59:13;;;;;;;7.20;5.93;;;15.80;94.20;;;;;;4940511;29;20533;-94
2021/10/25 13:01:54;;;;;;;5.50;4.57;;;15.90;93.60;;;;;;4941642;29;20803;-93
2021/10/25 13:04:27;;;;;;;5.37;3.93;;;15.90;93.70;;;;;;4939855;29;20448;-93
2021/10/25 13:06:55;;;;;;;7.30;5.27;;;15.90;93.90;;;;;;4926680;29;20436;-94
2021/10/25 13:09:50;;;;;;;6.90;5.77;;;15.90;93.80;;;;;;4948065;28;20442;-93
2021/10/25 13:12:20;;;;;;;5.90;5.30;;;15.90;94.00;;;;;;4951169;29;20439;-95
2021/10/25 13:17:47;;;;;;;6.23;5.63;;;16.00;93.90;;;;;;4946977;28;20447;-95
2021/10/25 13:20:21;;;;;;;6.70;5.37;;;16.10;94.00;;;;;;4953748;28;20534;-91
2021/10/25 13:22:57;;;;;;;7.67;5.77;;;16.10;93.90;;;;;;4936681;29;20517;-94
2021/10/25 13:25:36;;;;;;;6.20;4.97;;;16.10;93.80;;;;;;4945452;28;20442;-94
2021/10/25 13:28:05;;;;;;;8.00;5.67;;;16.20;93.90;;;;;;4953704;29;20450;-92
2021/10/25 13:30:35;;;;;;;12.50;5.50;;;16.20;93.80;;;;;;4940061;29;20482;-95
2021/10/25 13:33:10;;;;;;;8.60;6.80;;;16.30;93.50;;;;;;4939549;29;20559;-95
2021/10/25 13:35:36;;;;;;;5.80;5.30;;;16.30;93.30;;;;;;4946290;29;20462;-93
2021/10/25 13:38:21;;;;;;;7.33;4.43;;;16.30;93.10;;;;;;4942698;29;20462;-94
2021/10/25 13:40:47;;;;;;;6.37;4.90;;;16.30;93.20;;;;;;4941098;28;20486;-92
2021/10/25 13:43:13;;;;;;;5.90;5.30;;;16.20;93.30;;;;;;4953245;29;20502;-93
2021/10/25 13:45:42;;;;;;;10.50;5.03;;;16.30;93.40;;;;;;4961733;28;20477;-96
2021/10/25 13:48:11;;;;;;;5.97;5.37;;;16.30;93.10;;;;;;4946631;28;20197;-94
2021/10/25 13:50:37;;;;;;;5.93;4.70;;;16.30;92.80;;;;;;4967277;28;20467;-91
2021/10/25 13:53:03;;;;;;;5.80;4.50;;;16.30;92.90;;;;;;4949218;28;20519;-95
2021/10/25 13:55:29;;;;;;;5.33;4.93;;;16.30;92.80;;;;;;4950732;29;20462;-96
2021/10/25 13:57:55;;;;;;;4.73;4.33;;;16.30;92.80;;;;;;4938351;29;20553;-95
2021/10/25 14:00:24;;;;;;;9.53;5.23;;;16.30;92.80;;;;;;4939962;28;20234;-93
2021/10/25 14:02:55;;;;;;;6.00;5.30;;;16.40;92.60;;;;;;4912973;28;20692;-92
2021/10/25 14:05:24;;;;;;;7.50;5.40;;;16.40;92.70;;;;;;4916076;28;20474;-95
2021/10/25 14:07:54;;;;;;;7.10;5.43;;;16.40;92.20;;;;;;4939750;28;20430;-92
2021/10/25 14:10:27;;;;;;;11.70;7.77;;;16.40;92.20;;;;;;4957406;28;20478;-93
2021/10/25 14:12:56;;;;;;;18.80;12.47;;;16.40;91.90;;;;;;4939326;29;20439;-94
2021/10/25 14:15:34;;;;;;;14.27;9.30;;;16.40;91.90;;;;;;4916570;29;20554;-94
2021/10/25 14:18:00;;;;;;;25.80;13.90;;;16.40;92.00;;;;;;4917060;29;20440;-95
2021/10/25 14:20:49;;;;;;;7.70;6.43;;;16.40;91.80;;;;;;4921196;29;20454;-90
2021/10/25 14:23:14;;;;;;;12.03;8.20;;;16.40;91.40;;;;;;4943104;29;20442;-94
2021/10/25 14:25:40;;;;;;;30.50;15.77;;;16.30;91.50;;;;;;4918860;29;20467;-95
2021/10/25 14:28:05;;;;;;;22.87;11.40;;;16.30;91.60;;;;;;4930666;29;20189;-94
2021/10/25 14:30:32;;;;;;;22.77;13.17;;;16.30;91.60;;;;;;4937764;29;20245;-92